Celandine — ONDN — position and weather

sailwx.info

Track history (hours):
 
Tides and Currents Weather Stations Pressure Air Temp Water Temp Dewpoint Dewpoint Depression Visibility Wind Speed Wind Dir Waves Ship Positions

Celandine

Last reported at 2014-Dec-18 09:15 UTC. Time now 2014-Dec-18 09:36 UTC.
Position N 57°38' E 009°49'.

Length 162 m; draft 6.1 m.

Type: Ship (hazmat cat A). MMSI: 205476000.

Date/timePositionNaut miles runAvg speedWind from/ knotsBaromVisibWave heightAir tempDewpointWater temp
2014-Dec-18 09:15N 57°38' E 009°49'1216.2
2014-Dec-18 08:30N 57°44' E 010°09'1516.3
2014-Dec-18 07:34N 57°49' E 010°37'1616.3
2014-Dec-18 06:34N 57°44' E 011°06'1616.2
2014-Dec-18 05:34N 57°37' E 011°33'1110.9
2014-Dec-18 04:33N 57°41' E 011°52'0 0.0
2014-Dec-18 03:33N 57°41' E 011°52'0 0.0
2014-Dec-18 02:33N 57°41' E 011°52'0 0.0
2014-Dec-18 01:33N 57°41' E 011°52'0 0.0
2014-Dec-18 00:33N 57°41' E 011°52'0 0.0
2014-Dec-17 23:33N 57°41' E 011°52'0 0.0
2014-Dec-17 22:33N 57°41' E 011°52'0 0.0
2014-Dec-17 21:33N 57°41' E 011°52'0 0.0
2014-Dec-17 20:34N 57°41' E 011°52'9 9.2
2014-Dec-17 19:33N 57°37' E 011°37'1616.0
2014-Dec-17 18:33N 57°37' E 011°07'1716.9
2014-Dec-17 17:32N 57°48' E 010°42'8917.8
2014-Dec-17 12:31N 57°09' E 008°13'1718.3
2014-Dec-17 11:34N 56°54' E 007°56'9617.4
2014-Dec-17 06:04N 55°29' E 006°35'916.7
2014-Dec-17 05:33N 55°21' E 006°29'1717.2
2014-Dec-17 04:32N 55°06' E 006°16'5216.2
2014-Dec-17 01:18N 54°16' E 005°48'1216.0
2014-Dec-17 00:33N 54°04' E 005°41'1616.1
2014-Dec-16 23:33N 53°53' E 005°22'1717.2
2014-Dec-16 22:33N 53°42' E 005°01'1716.6
2014-Dec-16 21:34N 53°29' E 004°43'1616.5
2014-Dec-16 20:34N 53°13' E 004°32'1616.4
2014-Dec-16 19:33N 52°59' E 004°20'1616.1
2014-Dec-16 18:33N 52°45' E 004°07'1616.1
2014-Dec-16 17:33N 52°33' E 003°49'3315.3
2014-Dec-16 15:26N 52°03' E 003°27'1415.2
2014-Dec-16 14:30N 51°50' E 003°18'1515.4
2014-Dec-16 13:33N 51°37' E 003°08'1312.9
2014-Dec-16 12:33N 51°25' E 003°03'7 3.6
2014-Dec-16 10:31N 51°21' E 003°13'0 0.0
2014-Dec-16 09:19N 51°21' E 003°13'0 0.0
2014-Dec-16 08:16N 51°21' E 003°13'0 0.0
2014-Dec-16 07:33N 51°21' E 003°13'0 0.2
2014-Dec-16 05:33N 51°21' E 003°13'1310.2
2014-Dec-16 04:20N 51°33' E 003°07'1315.0
2014-Dec-16 03:27N 51°46' E 003°10'1415.2
2014-Dec-16 02:32N 51°58' E 003°20'3316.5
2014-Dec-16 00:31N 52°29' E 003°38'1313.8
2014-Dec-15 23:33N 52°39' E 003°54'1715.1
2014-Dec-15 22:24N 52°56' E 003°60'3314.3
2014-Dec-15 20:06N 53°23' E 004°31'1415.5
2014-Dec-15 19:11N 53°36' E 004°40'1015.8
2014-Dec-15 18:32N 53°42' E 004°54'1515.7
2014-Dec-15 17:33N 53°52' E 005°14'1514.9
2014-Dec-15 16:32N 54°01' E 005°35'1413.8
2014-Dec-15 15:32N 54°13' E 005°46'6314.2
2014-Dec-15 11:08N 55°13' E 006°20'9912.9
2014-Dec-15 03:27N 56°41' E 007°42'1112.2
2014-Dec-15 02:32N 56°51' E 007°52'1211.7
2014-Dec-15 01:33N 57°01' E 008°03'8311.6
2014-Dec-14 18:25N 57°45' E 010°13'1213.7
2014-Dec-14 17:33N 57°50' E 010°33'1413.9
2014-Dec-14 16:33N 57°47' E 010°58'1515.5
2014-Dec-14 15:33N 57°39' E 011°23'1211.5
2014-Dec-14 14:33N 57°39' E 011°45'4 4.3
2014-Dec-14 13:33N 57°41' E 011°52'0 0.0
2014-Dec-14 12:33N 57°41' E 011°52'0 0.0
2014-Dec-14 11:33N 57°41' E 011°52'0 0.0
2014-Dec-14 10:33N 57°41' E 011°52'0 0.0
2014-Dec-14 09:33N 57°41' E 011°52'0 0.0
2014-Dec-14 08:33N 57°41' E 011°52'0 0.0
2014-Dec-14 07:33N 57°41' E 011°52'0 0.0
2014-Dec-14 06:33N 57°41' E 011°52'0 0.0
2014-Dec-14 05:33N 57°41' E 011°52'5 5.4
2014-Dec-14 04:33N 57°39' E 011°43'1111.2
2014-Dec-14 03:33N 57°37' E 011°22'1212.3
2014-Dec-14 02:33N 57°40' E 011°00'1312.7
2014-Dec-14 01:33N 57°49' E 010°43'1111.0
2014-Dec-14 00:33N 57°47' E 010°22'8714.3
2014-Dec-13 18:29N 57°02' E 008°04'9215.5
2014-Dec-13 12:32N 55°42' E 006°42'1515.3
2014-Dec-13 11:33N 55°29' E 006°31'1515.2
2014-Dec-13 10:33N 55°14' E 006°21'5015.3
2014-Dec-13 07:15N 54°26' E 005°54'1115.4
2014-Dec-13 06:33N 54°16' E 005°48'1515.2
2014-Dec-13 05:33N 54°02' E 005°38'1615.8
2014-Dec-13 04:34N 53°51' E 005°19'1615.9
2014-Dec-13 03:33N 53°41' E 004°59'1515.1
2014-Dec-13 02:34N 53°28' E 004°45'1515.2
2014-Dec-13 01:33N 53°14' E 004°33'1515.1
2014-Dec-13 00:34N 53°01' E 004°20'1514.9
2014-Dec-12 23:34N 52°48' E 004°11'1515.4
2014-Dec-12 22:34N 52°37' E 003°53'3715.7
2014-Dec-12 20:14N 52°04' E 003°25'1116.6
2014-Dec-12 19:32N 51°53' E 003°22'1616.0
2014-Dec-12 18:33N 51°40' E 003°08'1513.8
2014-Dec-12 17:27N 51°25' E 003°04'7 6.4
2014-Dec-12 16:22N 51°21' E 003°13'0 0.0
2014-Dec-12 14:22N 51°21' E 003°13'0 0.0
2014-Dec-12 13:04N 51°21' E 003°13'0 0.0
2014-Dec-12 12:25N 51°21' E 003°13'0 0.0
2014-Dec-12 11:31N 51°21' E 003°13'0 0.0
2014-Dec-12 10:28N 51°21' E 003°13'0 0.0
2014-Dec-12 09:25N 51°21' E 003°13'0 0.0
2014-Dec-12 08:28N 51°21' E 003°13'0 0.0
2014-Dec-12 07:28N 51°21' E 003°13'0 0.2
2014-Dec-12 06:32N 51°21' E 003°13'9 9.6
2014-Dec-12 05:33N 51°26' E 003°01'1211.3
2014-Dec-12 04:30N 51°37' E 003°08'1111.9
2014-Dec-12 03:33N 51°48' E 003°12'2913.0
2014-Dec-12 01:18N 52°15' E 003°29'3712.3
2014-Dec-11 22:19N 52°50' E 003°45'911.7
2014-Dec-11 21:31N 52°58' E 003°54'26 8.6
2014-Dec-11 18:33N 53°16' E 004°24'16 7.3
2014-Dec-11 16:20N 53°32' E 004°30'12 9.8
2014-Dec-11 15:09N 53°41' E 004°41'610.8
2014-Dec-11 14:33N 53°47' E 004°46'1010.2
2014-Dec-11 13:32N 53°56' E 004°55'289 8.4
2014-Dec-10 03:18N 57°45' E 010°08'810.1
2014-Dec-10 02:33N 57°48' E 010°21'1111.4
2014-Dec-10 01:33N 57°49' E 010°42'1414.0
2014-Dec-10 00:33N 57°44' E 011°07'1414.4
2014-Dec-09 23:33N 57°37' E 011°31'1111.0
2014-Dec-09 22:33N 57°41' E 011°51'1 0.9
2014-Dec-09 21:33N 57°41' E 011°52'0 0.0
2014-Dec-09 20:33N 57°41' E 011°52'0 0.0
2014-Dec-09 19:33N 57°41' E 011°52'0 0.0
2014-Dec-09 18:33N 57°41' E 011°52'0 0.0
2014-Dec-09 17:33N 57°41' E 011°52'0 0.0
2014-Dec-09 16:33N 57°41' E 011°52'0 0.0
2014-Dec-09 15:33N 57°41' E 011°52'0 0.0
2014-Dec-09 14:33N 57°41' E 011°52'0 0.0
2014-Dec-09 13:33N 57°41' E 011°52'0 0.1
2014-Dec-09 12:28N 57°41' E 011°52'0 0.0
2014-Dec-09 11:31N 57°41' E 011°52'0 0.0
2014-Dec-09 10:31N 57°41' E 011°52'0 0.0
2014-Dec-09 09:31N 57°41' E 011°52'0 0.0
2014-Dec-09 08:31N 57°41' E 011°52'0 0.0
2014-Dec-09 07:28N 57°41' E 011°52'0 0.0
2014-Dec-09 06:31N 57°41' E 011°52'0 0.0
2014-Dec-09 05:28N 57°41' E 011°52'0 0.0
2014-Dec-09 04:31N 57°41' E 011°52'0 0.0
2014-Dec-09 03:31N 57°41' E 011°52'0 0.0
2014-Dec-09 02:31N 57°41' E 011°52'0 0.0
2014-Dec-09 01:31N 57°41' E 011°52'0 0.0
2014-Dec-09 00:31N 57°41' E 011°52'0 0.0
2014-Dec-08 23:31N 57°41' E 011°52'0 0.0
2014-Dec-08 22:31N 57°41' E 011°52'0 0.0
2014-Dec-08 21:31N 57°41' E 011°52'0 0.0
2014-Dec-08 20:31N 57°41' E 011°52'0 0.0
2014-Dec-08 19:31N 57°41' E 011°52'0 0.0
2014-Dec-08 18:31N 57°41' E 011°52'0 0.0
2014-Dec-08 17:31N 57°41' E 011°52'0 0.0
2014-Dec-08 16:31N 57°41' E 011°52'0 0.0
2014-Dec-08 15:31N 57°41' E 011°52'0 0.0
2014-Dec-08 14:31N 57°41' E 011°52'0 0.0
2014-Dec-08 13:31N 57°41' E 011°52'0 0.0
2014-Dec-08 12:31N 57°41' E 011°52'0 0.0
2014-Dec-08 11:28N 57°41' E 011°52'0 0.0
2014-Dec-08 10:33N 57°41' E 011°52'0 0.1
2014-Dec-08 09:32N 57°41' E 011°52'  
Track history (hours):
 
Tides and Currents Weather Stations Pressure Air Temp Water Temp Dewpoint Dewpoint Depression Visibility Wind Speed Wind Dir Waves Ship Positions

Celandine

Last reported at 2014-Dec-18 09:15 UTC. Time now 2014-Dec-18 09:36 UTC.
Position N 57°38' E 009°49'.

Length 162 m; draft 6.1 m.

Type: Ship (hazmat cat A). MMSI: 205476000.

Date/timePositionNaut miles runAvg speedWind from/ knotsBaromVisibWave heightAir tempDewpointWater temp
2014-Dec-18 09:15N 57°38' E 009°49'1216.2
2014-Dec-18 08:30N 57°44' E 010°09'1516.3
2014-Dec-18 07:34N 57°49' E 010°37'1616.3
2014-Dec-18 06:34N 57°44' E 011°06'1616.2
2014-Dec-18 05:34N 57°37' E 011°33'1110.9
2014-Dec-18 04:33N 57°41' E 011°52'0 0.0
2014-Dec-18 03:33N 57°41' E 011°52'0 0.0
2014-Dec-18 02:33N 57°41' E 011°52'0 0.0
2014-Dec-18 01:33N 57°41' E 011°52'0 0.0
2014-Dec-18 00:33N 57°41' E 011°52'0 0.0
2014-Dec-17 23:33N 57°41' E 011°52'0 0.0
2014-Dec-17 22:33N 57°41' E 011°52'0 0.0
2014-Dec-17 21:33N 57°41' E 011°52'0 0.0
2014-Dec-17 20:34N 57°41' E 011°52'9 9.2
2014-Dec-17 19:33N 57°37' E 011°37'1616.0
2014-Dec-17 18:33N 57°37' E 011°07'1716.9
2014-Dec-17 17:32N 57°48' E 010°42'8917.8
2014-Dec-17 12:31N 57°09' E 008°13'1718.3
2014-Dec-17 11:34N 56°54' E 007°56'9617.4
2014-Dec-17 06:04N 55°29' E 006°35'916.7
2014-Dec-17 05:33N 55°21' E 006°29'1717.2
2014-Dec-17 04:32N 55°06' E 006°16'5216.2
2014-Dec-17 01:18N 54°16' E 005°48'1216.0
2014-Dec-17 00:33N 54°04' E 005°41'1616.1
2014-Dec-16 23:33N 53°53' E 005°22'1717.2
2014-Dec-16 22:33N 53°42' E 005°01'1716.6
2014-Dec-16 21:34N 53°29' E 004°43'1616.5
2014-Dec-16 20:34N 53°13' E 004°32'1616.4
2014-Dec-16 19:33N 52°59' E 004°20'1616.1
2014-Dec-16 18:33N 52°45' E 004°07'1616.1
2014-Dec-16 17:33N 52°33' E 003°49'3315.3
2014-Dec-16 15:26N 52°03' E 003°27'1415.2
2014-Dec-16 14:30N 51°50' E 003°18'1515.4
2014-Dec-16 13:33N 51°37' E 003°08'1312.9
2014-Dec-16 12:33N 51°25' E 003°03'7 3.6
2014-Dec-16 10:31N 51°21' E 003°13'0 0.0
2014-Dec-16 09:19N 51°21' E 003°13'0 0.0
2014-Dec-16 08:16N 51°21' E 003°13'0 0.0
2014-Dec-16 07:33N 51°21' E 003°13'0 0.2
2014-Dec-16 05:33N 51°21' E 003°13'1310.2
2014-Dec-16 04:20N 51°33' E 003°07'1315.0
2014-Dec-16 03:27N 51°46' E 003°10'1415.2
2014-Dec-16 02:32N 51°58' E 003°20'3316.5
2014-Dec-16 00:31N 52°29' E 003°38'1313.8
2014-Dec-15 23:33N 52°39' E 003°54'1715.1
2014-Dec-15 22:24N 52°56' E 003°60'3314.3
2014-Dec-15 20:06N 53°23' E 004°31'1415.5
2014-Dec-15 19:11N 53°36' E 004°40'1015.8
2014-Dec-15 18:32N 53°42' E 004°54'1515.7
2014-Dec-15 17:33N 53°52' E 005°14'1514.9
2014-Dec-15 16:32N 54°01' E 005°35'1413.8
2014-Dec-15 15:32N 54°13' E 005°46'6314.2
2014-Dec-15 11:08N 55°13' E 006°20'9912.9
2014-Dec-15 03:27N 56°41' E 007°42'1112.2
2014-Dec-15 02:32N 56°51' E 007°52'1211.7
2014-Dec-15 01:33N 57°01' E 008°03'8311.6
2014-Dec-14 18:25N 57°45' E 010°13'1213.7
2014-Dec-14 17:33N 57°50' E 010°33'1413.9
2014-Dec-14 16:33N 57°47' E 010°58'1515.5
2014-Dec-14 15:33N 57°39' E 011°23'1211.5
2014-Dec-14 14:33N 57°39' E 011°45'4 4.3
2014-Dec-14 13:33N 57°41' E 011°52'0 0.0
2014-Dec-14 12:33N 57°41' E 011°52'0 0.0
2014-Dec-14 11:33N 57°41' E 011°52'0 0.0
2014-Dec-14 10:33N 57°41' E 011°52'0 0.0
2014-Dec-14 09:33N 57°41' E 011°52'0 0.0
2014-Dec-14 08:33N 57°41' E 011°52'0 0.0
2014-Dec-14 07:33N 57°41' E 011°52'0 0.0
2014-Dec-14 06:33N 57°41' E 011°52'0 0.0
2014-Dec-14 05:33N 57°41' E 011°52'5 5.4
2014-Dec-14 04:33N 57°39' E 011°43'1111.2
2014-Dec-14 03:33N 57°37' E 011°22'1212.3
2014-Dec-14 02:33N 57°40' E 011°00'1312.7
2014-Dec-14 01:33N 57°49' E 010°43'1111.0
2014-Dec-14 00:33N 57°47' E 010°22'8714.3
2014-Dec-13 18:29N 57°02' E 008°04'9215.5
2014-Dec-13 12:32N 55°42' E 006°42'1515.3
2014-Dec-13 11:33N 55°29' E 006°31'1515.2
2014-Dec-13 10:33N 55°14' E 006°21'5015.3
2014-Dec-13 07:15N 54°26' E 005°54'1115.4
2014-Dec-13 06:33N 54°16' E 005°48'1515.2
2014-Dec-13 05:33N 54°02' E 005°38'1615.8
2014-Dec-13 04:34N 53°51' E 005°19'1615.9
2014-Dec-13 03:33N 53°41' E 004°59'1515.1
2014-Dec-13 02:34N 53°28' E 004°45'1515.2
2014-Dec-13 01:33N 53°14' E 004°33'1515.1
2014-Dec-13 00:34N 53°01' E 004°20'1514.9
2014-Dec-12 23:34N 52°48' E 004°11'1515.4
2014-Dec-12 22:34N 52°37' E 003°53'3715.7
2014-Dec-12 20:14N 52°04' E 003°25'1116.6
2014-Dec-12 19:32N 51°53' E 003°22'1616.0
2014-Dec-12 18:33N 51°40' E 003°08'1513.8
2014-Dec-12 17:27N 51°25' E 003°04'7 6.4
2014-Dec-12 16:22N 51°21' E 003°13'0 0.0
2014-Dec-12 14:22N 51°21' E 003°13'0 0.0
2014-Dec-12 13:04N 51°21' E 003°13'0 0.0
2014-Dec-12 12:25N 51°21' E 003°13'0 0.0
2014-Dec-12 11:31N 51°21' E 003°13'0 0.0
2014-Dec-12 10:28N 51°21' E 003°13'0 0.0
2014-Dec-12 09:25N 51°21' E 003°13'0 0.0
2014-Dec-12 08:28N 51°21' E 003°13'0 0.0
2014-Dec-12 07:28N 51°21' E 003°13'0 0.2
2014-Dec-12 06:32N 51°21' E 003°13'9 9.6
2014-Dec-12 05:33N 51°26' E 003°01'1211.3
2014-Dec-12 04:30N 51°37' E 003°08'1111.9
2014-Dec-12 03:33N 51°48' E 003°12'2913.0
2014-Dec-12 01:18N 52°15' E 003°29'3712.3
2014-Dec-11 22:19N 52°50' E 003°45'911.7
2014-Dec-11 21:31N 52°58' E 003°54'26 8.6
2014-Dec-11 18:33N 53°16' E 004°24'16 7.3
2014-Dec-11 16:20N 53°32' E 004°30'12 9.8
2014-Dec-11 15:09N 53°41' E 004°41'610.8
2014-Dec-11 14:33N 53°47' E 004°46'1010.2
2014-Dec-11 13:32N 53°56' E 004°55'289 8.4
2014-Dec-10 03:18N 57°45' E 010°08'810.1
2014-Dec-10 02:33N 57°48' E 010°21'1111.4
2014-Dec-10 01:33N 57°49' E 010°42'1414.0
2014-Dec-10 00:33N 57°44' E 011°07'1414.4
2014-Dec-09 23:33N 57°37' E 011°31'1111.0
2014-Dec-09 22:33N 57°41' E 011°51'1 0.9
2014-Dec-09 21:33N 57°41' E 011°52'0 0.0
2014-Dec-09 20:33N 57°41' E 011°52'0 0.0
2014-Dec-09 19:33N 57°41' E 011°52'0 0.0
2014-Dec-09 18:33N 57°41' E 011°52'0 0.0
2014-Dec-09 17:33N 57°41' E 011°52'0 0.0
2014-Dec-09 16:33N 57°41' E 011°52'0 0.0
2014-Dec-09 15:33N 57°41' E 011°52'0 0.0
2014-Dec-09 14:33N 57°41' E 011°52'0 0.0
2014-Dec-09 13:33N 57°41' E 011°52'0 0.1
2014-Dec-09 12:28N 57°41' E 011°52'0 0.0
2014-Dec-09 11:31N 57°41' E 011°52'0 0.0
2014-Dec-09 10:31N 57°41' E 011°52'0 0.0
2014-Dec-09 09:31N 57°41' E 011°52'0 0.0
2014-Dec-09 08:31N 57°41' E 011°52'0 0.0
2014-Dec-09 07:28N 57°41' E 011°52'0 0.0
2014-Dec-09 06:31N 57°41' E 011°52'0 0.0
2014-Dec-09 05:28N 57°41' E 011°52'0 0.0
2014-Dec-09 04:31N 57°41' E 011°52'0 0.0
2014-Dec-09 03:31N 57°41' E 011°52'0 0.0
2014-Dec-09 02:31N 57°41' E 011°52'0 0.0
2014-Dec-09 01:31N 57°41' E 011°52'0 0.0
2014-Dec-09 00:31N 57°41' E 011°52'0 0.0
2014-Dec-08 23:31N 57°41' E 011°52'0 0.0
2014-Dec-08 22:31N 57°41' E 011°52'0 0.0
2014-Dec-08 21:31N 57°41' E 011°52'0 0.0
2014-Dec-08 20:31N 57°41' E 011°52'0 0.0
2014-Dec-08 19:31N 57°41' E 011°52'0 0.0
2014-Dec-08 18:31N 57°41' E 011°52'0 0.0
2014-Dec-08 17:31N 57°41' E 011°52'0 0.0
2014-Dec-08 16:31N 57°41' E 011°52'0 0.0
2014-Dec-08 15:31N 57°41' E 011°52'0 0.0
2014-Dec-08 14:31N 57°41' E 011°52'0 0.0
2014-Dec-08 13:31N 57°41' E 011°52'0 0.0
2014-Dec-08 12:31N 57°41' E 011°52'0 0.0
2014-Dec-08 11:28N 57°41' E 011°52'0 0.0
2014-Dec-08 10:33N 57°41' E 011°52'0 0.1
2014-Dec-08 09:32N 57°41' E 011°52'  

Dump ship's entire track history